Fountain Hill, North Carolina
Current Conditions -  °F | °C
As of 3:35 PM on Thursday 27 Nov 2014 (Local Time) from KAFP Reporting Station
Clear Clear  
Wind Chill: 51°   Ceiling: Unl
Heat Index: 51°   Visibility: 10mi
Dew Point: 35°   Wind: 6mph
Humidity: 55%   Direction: 300°WNW
Pressure: 30.12"   Gusts: NA
Location:  34.9529°N, 80.2682°W
Report Text: KAFP 272035Z AUTO 30005KT 10SM CLR 10/02 A3012 RMK AO2 T01030017
Loading
Personal Weather Stations






























Interactive Weather Map New forecast layout! Learn more

10-Day Weather Forecast

Advertisements
Track Severe Weather on mobile